Juan J. Sister — EAJB — position and weather

sailwx.info

Track history (hours):
 
Tides and Currents Weather Stations Pressure Air Temp Water Temp Dewpoint Dewpoint Depression Visibility Wind Speed Wind Dir Waves Ship Positions

Juan J. Sister

Last reported at 2018-Jun-17 00:30 UTC. Time now 2018-Jun-20 07:40 UTC.
Position N 36°09' W 002°40'.

Length 151 m; draft 5.2 m.

Type: Passenger vessel. MMSI: 224647000.

Date/timePositionNaut miles runAvg speedWind from/ knotsBaromVisibWave heightAir tempDewpointWater temp
2018-Jun-17 00:30N 36°09' W 002°40'  
2018-Jun-09 19:55N 37°13' W 001°04'410.6
2018-Jun-09 19:30N 37°16' W 001°00'510.7
2018-Jun-09 19:00N 37°19' W 000°55'510.9
2018-Jun-09 18:30N 37°23' W 000°50'611.0
2018-Jun-09 18:00N 37°26' W 000°45'510.8
2018-Jun-09 17:30N 37°30' W 000°40'510.9
2018-Jun-09 17:00N 37°34' W 000°35'611.6
2018-Jun-09 16:30N 37°38' W 000°30'611.6
2018-Jun-09 16:00N 37°43' W 000°26'1211.5
2018-Jun-09 15:00N 37°53' W 000°19'611.5
2018-Jun-09 14:30N 37°58' W 000°15'611.6
2018-Jun-09 13:59N 38°04' W 000°12'611.4
2018-Jun-09 13:28N 38°08' W 000°07'611.4
2018-Jun-09 12:59N 38°13' W 000°03'17113.3
2018-Jun-09 00:09N 40°41' E 001°46'214.7
2018-Jun-09 00:00N 40°43' E 001°47'814.7
2018-Jun-08 23:30N 40°49' E 001°52'714.6
2018-Jun-08 22:59N 40°56' E 001°57'714.6
2018-Jun-08 22:29N 41°02' E 002°02'714.6
2018-Jun-08 22:00N 41°08' E 002°07'714.1
2018-Jun-08 21:30N 41°14' E 002°11'612.4
2018-Jun-08 21:00N 41°20' E 002°12'2 3.6
2018-Jun-08 20:26N 41°22' E 002°11'0 0.0
2018-Jun-08 19:50N 41°22' E 002°11'0 0.0
2018-Jun-08 19:29N 41°22' E 002°11'0 0.0
2018-Jun-08 18:57N 41°22' E 002°11'0 0.0
2018-Jun-08 18:26N 41°22' E 002°11'0 0.0
2018-Jun-08 18:00N 41°22' E 002°11'0 0.0
2018-Jun-08 17:23N 41°22' E 002°11'2 5.2
2018-Jun-08 17:00N 41°21' E 002°12'917.0
2018-Jun-08 16:30N 41°14' E 002°19'816.6
2018-Jun-08 16:00N 41°07' E 002°26'816.3
2018-Jun-08 15:30N 41°01' E 002°33'1416.5
2018-Jun-08 14:41N 40°52' E 002°46'316.8
2018-Jun-08 14:30N 40°50' E 002°49'1516.9
2018-Jun-08 13:37N 40°39' E 003°03'217.2
2018-Jun-08 13:30N 40°37' E 003°04'1217.1
2018-Jun-08 12:49N 40°28' E 003°14'37 5.7
2018-Jun-08 06:26N 39°59' E 003°43'0 0.5
2018-Jun-08 05:51N 39°59' E 003°42'1 1.0
2018-Jun-08 05:18N 39°58' E 003°43'8811.7
2018-Jun-07 21:43N 41°06' E 002°28'417.6
2018-Jun-07 21:29N 41°09' E 002°25'817.4
2018-Jun-07 21:00N 41°16' E 002°18'815.9
2018-Jun-07 20:30N 41°22' E 002°11'0 0.4
2018-Jun-07 19:58N 41°22' E 002°11'0 0.0
2018-Jun-07 19:28N 41°22' E 002°11'0 0.0
2018-Jun-07 18:55N 41°22' E 002°11'0 0.0
2018-Jun-07 18:26N 41°22' E 002°11'0 0.3
2018-Jun-07 18:00N 41°22' E 002°11'612.5
2018-Jun-07 17:31N 41°16' E 002°13'917.3
2018-Jun-07 17:00N 41°08' E 002°10'12417.3
2018-Jun-07 09:52N 39°06' E 001°41'616.8
2018-Jun-07 09:30N 38°60' E 001°39'917.3
2018-Jun-07 09:00N 38°55' E 001°30'2 4.5
2018-Jun-07 08:29N 38°54' E 001°27'0 0.0
2018-Jun-07 06:57N 38°54' E 001°27'0 0.0
2018-Jun-07 06:15N 38°54' E 001°27'0 0.3
2018-Jun-07 05:12N 38°54' E 001°27'413.3
2018-Jun-07 04:56N 38°55' E 001°31'816.9
2018-Jun-07 04:28N 39°00' E 001°39'  
Track history (hours):
 
Tides and Currents Weather Stations Pressure Air Temp Water Temp Dewpoint Dewpoint Depression Visibility Wind Speed Wind Dir Waves Ship Positions

Juan J. Sister

Last reported at 2018-Jun-17 00:30 UTC. Time now 2018-Jun-20 07:40 UTC.
Position N 36°09' W 002°40'.

Length 151 m; draft 5.2 m.

Type: Passenger vessel. MMSI: 224647000.

Date/timePositionNaut miles runAvg speedWind from/ knotsBaromVisibWave heightAir tempDewpointWater temp
2018-Jun-17 00:30N 36°09' W 002°40'  
2018-Jun-09 19:55N 37°13' W 001°04'410.6
2018-Jun-09 19:30N 37°16' W 001°00'510.7
2018-Jun-09 19:00N 37°19' W 000°55'510.9
2018-Jun-09 18:30N 37°23' W 000°50'611.0
2018-Jun-09 18:00N 37°26' W 000°45'510.8
2018-Jun-09 17:30N 37°30' W 000°40'510.9
2018-Jun-09 17:00N 37°34' W 000°35'611.6
2018-Jun-09 16:30N 37°38' W 000°30'611.6
2018-Jun-09 16:00N 37°43' W 000°26'1211.5
2018-Jun-09 15:00N 37°53' W 000°19'611.5
2018-Jun-09 14:30N 37°58' W 000°15'611.6
2018-Jun-09 13:59N 38°04' W 000°12'611.4
2018-Jun-09 13:28N 38°08' W 000°07'611.4
2018-Jun-09 12:59N 38°13' W 000°03'17113.3
2018-Jun-09 00:09N 40°41' E 001°46'214.7
2018-Jun-09 00:00N 40°43' E 001°47'814.7
2018-Jun-08 23:30N 40°49' E 001°52'714.6
2018-Jun-08 22:59N 40°56' E 001°57'714.6
2018-Jun-08 22:29N 41°02' E 002°02'714.6
2018-Jun-08 22:00N 41°08' E 002°07'714.1
2018-Jun-08 21:30N 41°14' E 002°11'612.4
2018-Jun-08 21:00N 41°20' E 002°12'2 3.6
2018-Jun-08 20:26N 41°22' E 002°11'0 0.0
2018-Jun-08 19:50N 41°22' E 002°11'0 0.0
2018-Jun-08 19:29N 41°22' E 002°11'0 0.0
2018-Jun-08 18:57N 41°22' E 002°11'0 0.0
2018-Jun-08 18:26N 41°22' E 002°11'0 0.0
2018-Jun-08 18:00N 41°22' E 002°11'0 0.0
2018-Jun-08 17:23N 41°22' E 002°11'2 5.2
2018-Jun-08 17:00N 41°21' E 002°12'917.0
2018-Jun-08 16:30N 41°14' E 002°19'816.6
2018-Jun-08 16:00N 41°07' E 002°26'816.3
2018-Jun-08 15:30N 41°01' E 002°33'1416.5
2018-Jun-08 14:41N 40°52' E 002°46'316.8
2018-Jun-08 14:30N 40°50' E 002°49'1516.9
2018-Jun-08 13:37N 40°39' E 003°03'217.2
2018-Jun-08 13:30N 40°37' E 003°04'1217.1
2018-Jun-08 12:49N 40°28' E 003°14'37 5.7
2018-Jun-08 06:26N 39°59' E 003°43'0 0.5
2018-Jun-08 05:51N 39°59' E 003°42'1 1.0
2018-Jun-08 05:18N 39°58' E 003°43'8811.7
2018-Jun-07 21:43N 41°06' E 002°28'417.6
2018-Jun-07 21:29N 41°09' E 002°25'817.4
2018-Jun-07 21:00N 41°16' E 002°18'815.9
2018-Jun-07 20:30N 41°22' E 002°11'0 0.4
2018-Jun-07 19:58N 41°22' E 002°11'0 0.0
2018-Jun-07 19:28N 41°22' E 002°11'0 0.0
2018-Jun-07 18:55N 41°22' E 002°11'0 0.0
2018-Jun-07 18:26N 41°22' E 002°11'0 0.3
2018-Jun-07 18:00N 41°22' E 002°11'612.5
2018-Jun-07 17:31N 41°16' E 002°13'917.3
2018-Jun-07 17:00N 41°08' E 002°10'12417.3
2018-Jun-07 09:52N 39°06' E 001°41'616.8
2018-Jun-07 09:30N 38°60' E 001°39'917.3
2018-Jun-07 09:00N 38°55' E 001°30'2 4.5
2018-Jun-07 08:29N 38°54' E 001°27'0 0.0
2018-Jun-07 06:57N 38°54' E 001°27'0 0.0
2018-Jun-07 06:15N 38°54' E 001°27'0 0.3
2018-Jun-07 05:12N 38°54' E 001°27'413.3
2018-Jun-07 04:56N 38°55' E 001°31'816.9
2018-Jun-07 04:28N 39°00' E 001°39'  

Dump ship's entire track history